Time;durP1;ratioP1;P1;durP2;ratioP2;P2;SDS_P1;SDS_P2;PMS_P1;PMS_P2;Temp;Humidity;BMP_temperature;BMP_pressure;BME280_temperature;BME280_humidity;BME280_pressure;Samples;Min_cycle;Max_cycle;Signal;HPM_P1;HPM_P2
2021/12/25 00:02:24;;;;;;;7.03;1.60;;;-0.30;99.90;;;;;;5143231;28;20103;-66
2021/12/25 00:04:50;;;;;;;7.43;1.88;;;-0.30;99.90;;;;;;5143170;28;20042;-66
2021/12/25 00:07:15;;;;;;;6.40;1.50;;;-0.40;99.90;;;;;;5143017;28;20046;-66
2021/12/25 00:09:41;;;;;;;4.77;1.40;;;-0.40;99.90;;;;;;5124283;28;20081;-66
2021/12/25 00:12:07;;;;;;;4.53;1.43;;;-0.50;99.90;;;;;;5142859;28;20035;-66
2021/12/25 00:14:33;;;;;;;5.80;1.52;;;-0.50;99.90;;;;;;5143355;28;20142;-67
2021/12/25 00:17:00;;;;;;;5.83;1.70;;;-0.60;99.90;;;;;;5143026;28;20039;-66
2021/12/25 00:19:26;;;;;;;4.43;1.50;;;-0.70;99.90;;;;;;5133096;28;20039;-66
2021/12/25 00:21:52;;;;;;;4.30;1.60;;;-0.70;99.90;;;;;;5144408;27;20107;-66
2021/12/25 00:24:18;;;;;;;4.47;1.85;;;-0.70;99.90;;;;;;5128116;27;20111;-66
2021/12/25 00:34:36;;;;;;;9.52;1.70;;;-0.90;99.90;;;;;;5061167;28;20106;-66
2021/12/25 00:37:03;;;;;;;6.95;1.73;;;-0.90;99.90;;;;;;5026111;28;20095;-66
2021/12/25 00:39:30;;;;;;;4.13;1.40;;;-0.90;99.90;;;;;;5042829;28;20126;-65
2021/12/25 00:41:59;;;;;;;;;;;-1.00;99.90;;;;;;5062271;28;20513;-65
2021/12/25 00:44:26;;;;;;;4.78;1.80;;;-1.10;99.90;;;;;;5045605;28;19921;-65
2021/12/25 00:46:51;;;;;;;4.63;1.65;;;-1.10;99.90;;;;;;5061146;28;20466;-65
2021/12/25 00:49:17;;;;;;;4.00;1.37;;;-1.00;99.90;;;;;;5062952;28;20049;-65
2021/12/25 00:51:43;;;;;;;4.60;1.40;;;-1.10;99.90;;;;;;5062326;28;20295;-65
2021/12/25 00:54:09;;;;;;;1.48;1.20;;;-1.10;99.90;;;;;;5045856;28;20056;-65
2021/12/25 00:56:35;;;;;;;6.50;1.67;;;-1.10;99.90;;;;;;5060878;28;20138;-65
2021/12/25 00:59:01;;;;;;;5.63;1.55;;;-1.20;99.90;;;;;;5062373;28;20052;-65
2021/12/25 01:01:27;;;;;;;8.35;2.42;;;-1.20;99.90;;;;;;5045798;28;20595;-65
2021/12/25 01:03:53;;;;;;;2.47;1.30;;;-1.30;99.90;;;;;;5045417;28;20151;-64
2021/12/25 01:06:18;;;;;;;3.77;1.10;;;-1.30;99.90;;;;;;5057845;28;20049;-64
2021/12/25 01:08:44;;;;;;;3.03;1.30;;;-1.30;99.90;;;;;;5084021;27;20587;-64
2021/12/25 01:11:10;;;;;;;2.55;1.33;;;-1.40;99.90;;;;;;5127779;27;20051;-64
2021/12/25 01:13:42;;;;;;;4.28;1.65;;;-1.40;99.90;;;;;;5126995;27;20092;-65
2021/12/25 01:16:30;;;;;;;7.10;1.90;;;-1.40;99.90;;;;;;5145122;27;20084;-64
2021/12/25 01:29:29;;;;;;;4.35;1.17;;;-1.60;99.90;;;;;;5145173;27;20049;-65
2021/12/25 01:42:09;;;;;;;2.63;1.17;;;-1.70;99.90;;;;;;5125118;28;20081;-64
2021/12/25 01:50:06;;;;;;;4.43;1.25;;;-1.80;99.90;;;;;;5122892;28;20043;-64
2021/12/25 01:52:32;;;;;;;5.05;1.48;;;-1.80;99.90;;;;;;5105980;28;20108;-64
2021/12/25 01:55:02;;;;;;;6.13;1.20;;;-1.90;99.90;;;;;;5123453;28;20082;-64
2021/12/25 01:57:30;;;;;;;4.35;1.48;;;-1.90;99.90;;;;;;5124566;28;20054;-64
2021/12/25 01:59:57;;;;;;;2.45;1.10;;;-1.90;99.90;;;;;;5122926;28;20071;-64
2021/12/25 02:02:24;;;;;;;2.75;1.30;;;-1.90;99.90;;;;;;5122896;28;20043;-64
2021/12/25 02:04:50;;;;;;;2.53;1.20;;;-1.90;99.90;;;;;;5124505;28;20070;-64
2021/12/25 02:07:16;;;;;;;5.13;1.55;;;-2.00;99.90;;;;;;5122985;28;20043;-64
2021/12/25 02:09:42;;;;;;;2.38;1.10;;;-2.00;99.90;;;;;;5123034;28;20043;-63
2021/12/25 02:12:08;;;;;;;2.27;1.10;;;-2.00;99.90;;;;;;5124241;28;20059;-64
2021/12/25 02:14:35;;;;;;;1.27;0.70;;;-2.10;99.90;;;;;;5124380;28;20189;-64
2021/12/25 02:17:15;;;;;;;4.63;1.10;;;-2.10;99.90;;;;;;5123955;28;20043;-64
2021/12/25 02:19:48;;;;;;;1.15;0.93;;;-2.10;99.90;;;;;;5124256;28;20064;-65
2021/12/25 02:22:14;;;;;;;6.28;1.20;;;-2.10;99.90;;;;;;5122746;28;20123;-64
2021/12/25 02:24:40;;;;;;;1.88;0.63;;;-2.20;99.90;;;;;;5123777;28;21072;-64
2021/12/25 02:27:06;;;;;;;3.40;1.17;;;-2.10;99.90;;;;;;5121874;28;20127;-64
2021/12/25 02:29:33;;;;;;;2.53;0.85;;;-2.20;99.90;;;;;;5123902;27;20321;-64
2021/12/25 02:31:59;;;;;;;3.53;0.93;;;-2.20;99.90;;;;;;5124401;28;20047;-64
2021/12/25 02:34:25;;;;;;;;;;;-2.20;99.90;;;;;;5123412;28;20044;-64
2021/12/25 02:36:51;;;;;;;2.10;0.77;;;-2.20;99.90;;;;;;5122013;28;19930;-64
2021/12/25 02:39:16;;;;;;;1.85;1.10;;;-2.30;99.90;;;;;;5130618;27;20067;-64
2021/12/25 02:41:43;;;;;;;0.93;0.68;;;-2.20;99.90;;;;;;5125769;27;20047;-64
2021/12/25 02:44:09;;;;;;;2.17;0.73;;;-2.20;99.90;;;;;;5143249;27;20042;-64
2021/12/25 02:46:35;;;;;;;1.45;0.82;;;-2.20;99.90;;;;;;5126004;27;20043;-64
2021/12/25 02:49:01;;;;;;;1.00;0.68;;;-2.30;99.90;;;;;;5124682;27;20084;-64
2021/12/25 02:51:27;;;;;;;2.85;1.02;;;-2.30;99.90;;;;;;5144106;27;20035;-64
2021/12/25 02:53:53;;;;;;;1.23;0.75;;;-2.30;99.90;;;;;;5124876;27;20081;-64
2021/12/25 02:56:19;;;;;;;3.20;0.90;;;-2.30;99.90;;;;;;5125687;27;20101;-64
2021/12/25 02:58:44;;;;;;;2.97;0.80;;;-2.30;99.90;;;;;;5125468;27;20047;-64
2021/12/25 03:01:17;;;;;;;1.52;0.73;;;-2.30;99.90;;;;;;5125473;27;20062;-64
2021/12/25 03:03:43;;;;;;;4.32;0.98;;;-2.30;99.90;;;;;;5143801;27;20059;-64
2021/12/25 03:06:10;;;;;;;2.03;0.88;;;-2.40;99.90;;;;;;5125669;27;20057;-64
2021/12/25 03:08:37;;;;;;;1.52;0.98;;;-2.40;99.90;;;;;;5124421;27;20039;-64
2021/12/25 03:11:06;;;;;;;2.30;1.02;;;-2.40;99.90;;;;;;5125421;27;20071;-64
2021/12/25 03:13:42;;;;;;;5.13;1.20;;;-2.40;99.90;;;;;;5142462;27;20039;-64
2021/12/25 03:16:08;;;;;;;2.13;1.00;;;-2.40;99.90;;;;;;5123135;28;20048;-64
2021/12/25 03:18:42;;;;;;;2.65;0.93;;;-2.40;99.90;;;;;;5134874;27;20064;-64
2021/12/25 03:21:07;;;;;;;2.53;1.00;;;-2.50;99.90;;;;;;5124930;27;20111;-64
2021/12/25 03:23:36;;;;;;;2.03;1.10;;;-2.50;99.90;;;;;;5125069;27;20043;-64
2021/12/25 03:26:04;;;;;;;6.65;2.22;;;-2.50;99.90;;;;;;5140767;27;20042;-64
2021/12/25 03:28:32;;;;;;;2.22;0.75;;;-2.50;99.90;;;;;;5128898;27;20043;-64
2021/12/25 03:31:05;;;;;;;2.65;1.23;;;-2.50;99.90;;;;;;5124757;27;20055;-64
2021/12/25 03:33:32;;;;;;;1.90;1.35;;;-2.50;99.90;;;;;;5107536;28;20065;-65
2021/12/25 03:35:58;;;;;;;2.97;1.13;;;-2.60;99.90;;;;;;5124703;28;20074;-64
2021/12/25 03:38:26;;;;;;;6.15;1.85;;;-2.50;99.90;;;;;;5143428;27;20082;-65
2021/12/25 03:40:53;;;;;;;3.40;1.17;;;-2.50;99.90;;;;;;5142880;27;20158;-64
2021/12/25 03:43:20;;;;;;;2.92;1.20;;;-2.60;99.90;;;;;;5143195;27;20047;-64
2021/12/25 03:45:47;;;;;;;2.80;1.05;;;-2.60;99.90;;;;;;5124610;28;20111;-65
2021/12/25 03:59:00;;;;;;;2.78;1.05;;;-2.70;99.90;;;;;;5046653;28;20044;-65
2021/12/25 04:04:15;;;;;;;3.58;0.95;;;-2.70;99.90;;;;;;5053752;28;20065;-64
2021/12/25 04:06:59;;;;;;;4.20;0.95;;;-2.70;99.90;;;;;;5063766;28;20448;-65
2021/12/25 04:09:30;;;;;;;2.50;1.15;;;-2.70;99.90;;;;;;5063082;28;20092;-64
2021/12/25 04:11:59;;;;;;;2.13;0.95;;;-2.80;99.90;;;;;;5046648;28;20101;-65
2021/12/25 04:14:25;;;;;;;3.80;1.42;;;-2.80;99.90;;;;;;5044603;28;20048;-65
2021/12/25 04:16:51;;;;;;;;;;;-2.80;99.90;;;;;;5064054;28;20053;-65
2021/12/25 04:19:17;;;;;;;15.88;1.75;;;-2.80;99.90;;;;;;5062865;28;19974;-65
2021/12/25 04:22:06;;;;;;;2.20;0.98;;;-2.80;99.90;;;;;;5046359;28;20626;-64
2021/12/25 04:24:36;;;;;;;3.55;1.30;;;-2.80;99.90;;;;;;5066570;28;20146;-65
2021/12/25 04:27:05;;;;;;;1.95;0.98;;;-2.90;99.90;;;;;;5059800;28;20052;-64
2021/12/25 04:29:43;;;;;;;2.33;0.98;;;-2.90;99.90;;;;;;5077341;27;20059;-64
2021/12/25 05:04:57;;;;;;;3.40;1.23;;;-3.00;99.90;;;;;;5062411;28;20111;-64
2021/12/25 05:07:23;;;;;;;2.65;0.82;;;-3.00;99.90;;;;;;5043270;28;20049;-64
2021/12/25 05:09:49;;;;;;;2.83;1.13;;;-3.00;99.90;;;;;;5062677;28;20044;-64
2021/12/25 05:12:14;;;;;;;2.47;1.03;;;-3.00;99.90;;;;;;5045620;28;20094;-64
2021/12/25 05:14:40;;;;;;;2.20;1.10;;;-3.10;99.90;;;;;;5045619;28;20041;-64
2021/12/25 05:17:07;;;;;;;1.53;1.00;;;-3.10;99.90;;;;;;5036207;28;20045;-64
2021/12/25 05:19:33;;;;;;;1.08;0.60;;;-3.10;99.90;;;;;;5056990;28;20105;-64
2021/12/25 05:21:59;;;;;;;1.27;1.02;;;-3.10;99.90;;;;;;5045717;28;20061;-64
2021/12/25 05:24:27;;;;;;;5.25;1.40;;;-3.10;99.90;;;;;;5083171;27;20375;-64
2021/12/25 05:26:56;;;;;;;2.05;1.05;;;-3.10;99.90;;;;;;5127012;27;20107;-64
2021/12/25 05:29:24;;;;;;;2.67;1.10;;;-3.10;99.90;;;;;;5145469;27;20031;-64
2021/12/25 05:31:51;;;;;;;2.05;1.15;;;-3.10;99.90;;;;;;5145878;27;20127;-63
2021/12/25 05:34:17;;;;;;;5.72;1.23;;;-3.10;99.90;;;;;;5127389;27;20076;-64
2021/12/25 05:36:42;;;;;;;5.15;1.23;;;-3.10;99.90;;;;;;5145644;27;20129;-64
2021/12/25 05:39:12;;;;;;;2.20;1.03;;;-3.10;99.90;;;;;;5126761;27;20055;-64
2021/12/25 05:41:37;;;;;;;3.63;1.20;;;-3.10;99.90;;;;;;5126106;27;20100;-64
2021/12/25 05:44:04;;;;;;;1.33;0.80;;;-3.20;99.90;;;;;;5145590;27;20039;-64
2021/12/25 05:46:35;;;;;;;5.45;1.13;;;-3.10;99.90;;;;;;5146034;27;20054;-64
2021/12/25 05:49:00;;;;;;;2.38;1.10;;;-3.10;99.90;;;;;;5126142;27;20090;-64
2021/12/25 05:51:26;;;;;;;4.83;1.30;;;-3.20;99.90;;;;;;5145036;27;20062;-64
2021/12/25 05:53:52;;;;;;;4.78;1.10;;;-3.20;99.90;;;;;;5145216;27;20381;-64
2021/12/25 05:56:17;;;;;;;3.17;1.00;;;-3.20;99.90;;;;;;5145414;27;20142;-64
2021/12/25 05:58:43;;;;;;;4.20;1.50;;;-3.20;99.90;;;;;;5145904;27;20109;-64
2021/12/25 06:01:11;;;;;;;1.40;0.98;;;-3.20;99.90;;;;;;5126105;27;20043;-64
2021/12/25 06:03:37;;;;;;;5.28;1.23;;;-3.20;99.90;;;;;;5126755;27;20062;-64
2021/12/25 06:06:03;;;;;;;3.55;1.35;;;-3.20;99.90;;;;;;5126678;27;20051;-65
2021/12/25 06:08:29;;;;;;;5.82;1.63;;;-3.20;99.90;;;;;;5118159;28;20081;-64
2021/12/25 06:10:55;;;;;;;3.03;1.00;;;-3.20;99.90;;;;;;5124909;28;20366;-64
2021/12/25 06:13:22;;;;;;;1.70;0.68;;;-3.10;99.90;;;;;;5143292;27;20789;-64
2021/12/25 06:15:49;;;;;;;2.65;1.10;;;-3.10;99.90;;;;;;5126555;27;20119;-64
2021/12/25 06:18:15;;;;;;;2.38;0.98;;;-3.10;99.90;;;;;;5144109;27;20043;-64
2021/12/25 06:20:41;;;;;;;2.20;1.07;;;-3.10;99.90;;;;;;5125488;27;20057;-64
2021/12/25 06:23:07;;;;;;;5.15;1.20;;;-3.10;99.90;;;;;;5125442;27;20323;-64
2021/12/25 06:25:33;;;;;;;1.45;0.68;;;-3.20;99.90;;;;;;5144743;27;20039;-64
2021/12/25 06:27:59;;;;;;;2.17;1.15;;;-3.10;99.90;;;;;;5144429;27;20081;-64
2021/12/25 06:30:25;;;;;;;4.65;1.05;;;-3.10;99.90;;;;;;5144516;27;20118;-65
2021/12/25 06:32:51;;;;;;;2.38;1.20;;;-3.20;99.90;;;;;;5144044;27;20054;-64
2021/12/25 06:35:17;;;;;;;2.27;1.20;;;-3.10;99.90;;;;;;5126534;27;20039;-65
2021/12/25 06:37:45;;;;;;;3.53;0.77;;;-3.10;99.90;;;;;;5144127;27;20158;-65
2021/12/25 06:40:19;;;;;;;1.48;1.00;;;-3.20;99.90;;;;;;5144003;27;20078;-65
2021/12/25 06:42:48;;;;;;;5.13;1.30;;;-3.20;99.90;;;;;;5125610;27;20070;-65
2021/12/25 06:45:14;;;;;;;2.22;1.13;;;-3.20;99.90;;;;;;5144031;27;20051;-65
2021/12/25 06:47:40;;;;;;;3.47;1.05;;;-3.20;99.90;;;;;;5125723;27;20054;-65
2021/12/25 06:50:08;;;;;;;3.22;1.10;;;-3.20;99.90;;;;;;5144349;27;20039;-65
2021/12/25 06:52:35;;;;;;;1.60;0.98;;;-3.20;99.90;;;;;;5143731;27;20066;-65
2021/12/25 06:55:00;;;;;;;1.52;0.93;;;-3.20;99.90;;;;;;5125241;27;20128;-65
2021/12/25 06:57:28;;;;;;;5.10;1.38;;;-3.20;99.90;;;;;;5144046;27;20486;-65
2021/12/25 06:59:54;;;;;;;5.05;1.23;;;-3.20;99.90;;;;;;5144439;27;20047;-65
2021/12/25 07:02:20;;;;;;;4.75;1.35;;;-3.20;99.90;;;;;;5125252;27;20051;-65
2021/12/25 07:04:45;;;;;;;3.70;1.27;;;-3.30;99.90;;;;;;5143542;27;20085;-65
2021/12/25 07:07:11;;;;;;;6.67;1.50;;;-3.20;99.90;;;;;;5125022;27;20130;-65
2021/12/25 07:09:37;;;;;;;3.80;1.13;;;-3.20;99.90;;;;;;5144169;27;20043;-65
2021/12/25 07:12:03;;;;;;;1.95;0.90;;;-3.20;99.90;;;;;;5144062;27;20099;-65
2021/12/25 07:14:29;;;;;;;1.38;0.80;;;-3.20;99.90;;;;;;5143806;27;20039;-65
2021/12/25 07:16:55;;;;;;;1.23;0.90;;;-3.30;99.90;;;;;;5124902;27;20066;-65
2021/12/25 07:19:20;;;;;;;4.33;1.40;;;-3.30;99.90;;;;;;5143330;27;20042;-65
2021/12/25 07:21:46;;;;;;;2.73;0.97;;;-3.30;99.90;;;;;;5125151;27;20031;-64
2021/12/25 07:24:13;;;;;;;2.53;1.00;;;-3.30;99.90;;;;;;5125291;27;20075;-65
2021/12/25 07:26:39;;;;;;;1.35;0.88;;;-3.30;99.90;;;;;;5143767;27;20046;-64
2021/12/25 07:29:06;;;;;;;1.13;1.00;;;-3.30;99.90;;;;;;5144085;27;20043;-65
2021/12/25 07:31:31;;;;;;;2.65;1.13;;;-3.40;99.90;;;;;;5143342;27;20121;-65
2021/12/25 07:33:57;;;;;;;4.75;1.10;;;-3.40;99.90;;;;;;5125793;27;20039;-65
2021/12/25 07:36:23;;;;;;;2.60;1.40;;;-3.40;99.90;;;;;;5141247;27;20043;-65
2021/12/25 07:38:49;;;;;;;2.90;1.33;;;-3.40;99.90;;;;;;5136177;27;20098;-65
2021/12/25 07:41:16;;;;;;;3.25;1.20;;;-3.40;99.90;;;;;;5138908;27;20051;-65
2021/12/25 07:43:42;;;;;;;2.13;0.98;;;-3.40;99.90;;;;;;5124413;28;20053;-66
2021/12/25 07:46:08;;;;;;;8.53;2.97;;;-3.40;99.90;;;;;;5143463;28;20039;-64
2021/12/25 07:48:34;;;;;;;1.95;1.10;;;-3.40;99.90;;;;;;5143060;28;20475;-64
2021/12/25 07:51:02;;;;;;;2.10;1.10;;;-3.40;99.90;;;;;;5124651;28;20062;-64
2021/12/25 07:53:30;;;;;;;1.98;1.10;;;-3.40;99.90;;;;;;5143088;28;20043;-64
2021/12/25 07:55:55;;;;;;;4.07;1.27;;;-3.50;99.90;;;;;;5125141;28;20055;-65
2021/12/25 07:58:21;;;;;;;1.13;0.65;;;-3.40;99.90;;;;;;5124236;28;20119;-61
2021/12/25 08:00:47;;;;;;;8.68;1.30;;;-3.50;99.90;;;;;;5139745;28;20047;-63
2021/12/25 08:03:15;;;;;;;3.83;1.27;;;-3.50;99.90;;;;;;5143368;28;20039;-62
2021/12/25 08:05:42;;;;;;;2.40;1.00;;;-3.50;99.90;;;;;;5143419;28;20051;-62
2021/12/25 08:08:10;;;;;;;4.82;1.42;;;-3.50;99.90;;;;;;5142314;28;20064;-61
2021/12/25 08:10:37;;;;;;;8.35;1.10;;;-3.50;99.90;;;;;;5104443;28;20051;-65
2021/12/25 08:13:02;;;;;;;5.55;1.70;;;-3.50;99.90;;;;;;5123753;28;20074;-62
2021/12/25 08:15:30;;;;;;;4.75;1.38;;;-3.50;99.90;;;;;;5140528;27;20039;-58
2021/12/25 08:17:57;;;;;;;6.25;1.50;;;-3.50;99.90;;;;;;5139093;27;20035;-61
2021/12/25 08:20:23;;;;;;;1.95;1.20;;;-3.40;99.90;;;;;;5132651;28;20093;-61
2021/12/25 08:22:49;;;;;;;2.10;1.27;;;-3.50;99.90;;;;;;5117827;28;20051;-61
2021/12/25 08:25:16;;;;;;;2.97;1.20;;;-3.50;99.90;;;;;;5143006;28;20039;-59
2021/12/25 08:27:44;;;;;;;2.47;1.27;;;-3.50;99.90;;;;;;5124281;28;20046;-61
2021/12/25 08:30:13;;;;;;;2.90;1.20;;;-3.50;99.90;;;;;;5124311;28;20066;-62
2021/12/25 08:32:40;;;;;;;4.28;1.40;;;-3.50;99.90;;;;;;5124392;28;20104;-62
2021/12/25 08:35:08;;;;;;;3.28;1.23;;;-3.50;99.90;;;;;;5122802;28;20064;-67
2021/12/25 08:37:34;;;;;;;4.25;1.60;;;-3.50;99.90;;;;;;5136131;28;20054;-64
2021/12/25 08:40:00;;;;;;;1.65;1.15;;;-3.50;99.90;;;;;;5121077;28;20047;-60
2021/12/25 08:42:26;;;;;;;1.60;1.08;;;-3.50;99.90;;;;;;5136921;27;20435;-63
2021/12/25 08:45:04;;;;;;;4.03;1.58;;;-3.50;99.90;;;;;;5121990;27;20047;-63
2021/12/25 08:47:34;;;;;;;3.67;1.30;;;-3.50;99.90;;;;;;5127461;27;20134;-64
2021/12/25 08:50:03;;;;;;;4.80;1.35;;;-3.50;99.90;;;;;;5146659;27;20373;-61
2021/12/25 08:52:29;;;;;;;3.35;1.60;;;-3.50;99.90;;;;;;5146485;27;20036;-59
2021/12/25 08:54:54;;;;;;;4.50;1.63;;;-3.50;99.90;;;;;;5128161;27;20039;-65
2021/12/25 08:57:21;;;;;;;2.67;1.10;;;-3.50;99.90;;;;;;5127714;27;20058;-63
2021/12/25 08:59:51;;;;;;;5.38;1.30;;;-3.50;99.90;;;;;;5146333;27;20043;-63
2021/12/25 09:02:19;;;;;;;3.65;1.10;;;-3.40;99.90;;;;;;5126983;27;20090;-61
2021/12/25 09:04:47;;;;;;;4.40;1.73;;;-3.40;99.90;;;;;;5146859;27;20031;-61
2021/12/25 09:07:13;;;;;;;2.22;1.10;;;-3.40;99.90;;;;;;5123924;28;20048;-60
2021/12/25 09:09:40;;;;;;;6.43;1.50;;;-3.30;99.90;;;;;;5125898;28;20059;-59
2021/12/25 09:12:08;;;;;;;2.88;1.38;;;-3.30;99.90;;;;;;5104227;28;20052;-58
2021/12/25 09:14:34;;;;;;;3.00;1.20;;;-3.30;99.90;;;;;;5122714;27;20068;-59
2021/12/25 09:17:00;;;;;;;5.30;1.50;;;-3.30;99.90;;;;;;5127582;27;20515;-61
2021/12/25 09:19:26;;;;;;;1.90;1.33;;;-3.30;99.90;;;;;;5136715;27;20035;-59
2021/12/25 09:21:51;;;;;;;3.33;2.33;;;-3.30;99.90;;;;;;5145748;27;20351;-59
2021/12/25 09:24:17;;;;;;;2.50;1.27;;;-3.20;99.90;;;;;;5146217;27;20417;-59
2021/12/25 09:26:43;;;;;;;2.33;1.33;;;-3.20;99.90;;;;;;5122051;27;20039;-59
2021/12/25 09:29:09;;;;;;;4.95;1.40;;;-3.20;99.90;;;;;;5125030;27;20043;-59
2021/12/25 09:31:35;;;;;;;3.70;1.40;;;-3.20;99.90;;;;;;5145327;27;20061;-59
2021/12/25 09:34:01;;;;;;;3.53;1.38;;;-3.10;99.90;;;;;;5144855;27;20047;-59
2021/12/25 09:36:30;;;;;;;5.57;1.60;;;-3.10;99.90;;;;;;5126482;27;20036;-61
2021/12/25 09:38:56;;;;;;;3.67;1.67;;;-3.10;99.90;;;;;;5106955;27;20073;-60
2021/12/25 09:41:22;;;;;;;5.68;1.50;;;-3.10;99.90;;;;;;5126904;27;20039;-61
2021/12/25 09:43:49;;;;;;;3.60;1.70;;;-3.00;99.90;;;;;;5127255;27;20098;-59
2021/12/25 09:46:20;;;;;;;2.42;1.45;;;-3.00;99.90;;;;;;5127093;27;20136;-60
2021/12/25 09:48:47;;;;;;;9.27;1.42;;;-3.00;99.90;;;;;;5141711;27;20104;-61
2021/12/25 09:51:13;;;;;;;6.90;1.48;;;-3.00;99.90;;;;;;5126826;27;20058;-62
2021/12/25 09:53:40;;;;;;;3.72;1.27;;;-2.90;99.90;;;;;;5109342;27;20060;-63
2021/12/25 09:56:05;;;;;;;5.53;1.33;;;-2.90;99.90;;;;;;5141482;27;20043;-59
2021/12/25 09:58:31;;;;;;;4.10;1.77;;;-2.90;99.90;;;;;;5118140;27;20039;-61
2021/12/25 10:00:58;;;;;;;2.50;1.40;;;-2.90;99.90;;;;;;5136966;27;20039;-59
2021/12/25 10:03:29;;;;;;;2.92;1.52;;;-2.90;99.90;;;;;;5145051;27;20303;-60
2021/12/25 10:05:55;;;;;;;4.97;1.30;;;-2.90;99.90;;;;;;5120211;28;20063;-61
2021/12/25 10:08:23;;;;;;;11.03;1.60;;;-2.90;99.90;;;;;;5124613;27;20062;-61
2021/12/25 10:10:57;;;;;;;4.72;1.60;;;-2.80;99.90;;;;;;5126709;27;20062;-60
2021/12/25 10:13:30;;;;;;;3.72;1.52;;;-2.80;99.90;;;;;;5133038;27;20408;-61
2021/12/25 10:16:28;;;;;;;4.55;1.70;;;-2.80;99.90;;;;;;5139047;27;20097;-60
2021/12/25 10:19:12;;;;;;;2.30;1.17;;;-2.70;99.90;;;;;;5144501;27;20039;-60
2021/12/25 10:21:38;;;;;;;2.40;1.58;;;-2.80;99.90;;;;;;5108300;27;20082;-59
2021/12/25 10:24:09;;;;;;;2.87;1.43;;;-2.70;99.90;;;;;;5125885;27;20091;-59
2021/12/25 10:26:37;;;;;;;3.80;1.58;;;-2.70;99.90;;;;;;5116266;27;20065;-60
2021/12/25 10:29:28;;;;;;;4.50;1.45;;;-2.70;99.90;;;;;;5144762;27;20129;-60
2021/12/25 10:31:59;;;;;;;7.55;1.40;;;-2.60;99.90;;;;;;5124933;27;20042;-60
2021/12/25 10:34:28;;;;;;;3.35;1.50;;;-2.60;99.90;;;;;;5144547;27;20050;-61
2021/12/25 10:36:54;;;;;;;2.63;1.50;;;-2.60;99.90;;;;;;5125004;27;20039;-61
2021/12/25 10:39:23;;;;;;;5.82;2.15;;;-2.50;99.90;;;;;;5143883;27;20055;-60
2021/12/25 10:42:09;;;;;;;3.38;1.50;;;-2.50;99.90;;;;;;5126011;27;20051;-61
2021/12/25 10:44:47;;;;;;;3.28;1.50;;;-2.50;99.90;;;;;;5125573;27;20076;-60
2021/12/25 10:47:20;;;;;;;5.68;1.85;;;-2.40;99.90;;;;;;5143947;27;20147;-62
2021/12/25 10:50:13;;;;;;;3.65;1.48;;;-2.40;99.90;;;;;;5125258;27;20103;-57
2021/12/25 10:52:44;;;;;;;3.67;1.60;;;-2.30;99.90;;;;;;5117793;27;20051;-60
2021/12/25 10:55:15;;;;;;;2.58;1.38;;;-2.30;99.90;;;;;;5144096;27;20469;-60
2021/12/25 10:57:46;;;;;;;2.60;1.40;;;-2.30;99.90;;;;;;5125068;27;20046;-60
2021/12/25 11:00:24;;;;;;;4.57;1.58;;;-2.20;99.90;;;;;;5144070;27;20054;-60
2021/12/25 11:03:03;;;;;;;4.20;1.50;;;-2.20;99.90;;;;;;5125474;27;20067;-60
2021/12/25 11:05:36;;;;;;;4.65;1.40;;;-2.20;99.90;;;;;;5143590;27;20050;-60
2021/12/25 11:08:12;;;;;;;6.32;1.63;;;-2.20;99.90;;;;;;5143662;27;20043;-60
2021/12/25 11:10:59;;;;;;;4.10;1.63;;;-2.10;99.90;;;;;;5123214;28;20480;-60
2021/12/25 11:13:48;;;;;;;3.95;1.73;;;-2.10;99.90;;;;;;5123145;28;20069;-60
2021/12/25 11:16:31;;;;;;;6.20;1.77;;;-2.10;99.90;;;;;;5123135;28;20040;-60
2021/12/25 11:19:14;;;;;;;4.72;1.63;;;-2.00;99.90;;;;;;5137925;27;20054;-60
2021/12/25 11:21:47;;;;;;;4.68;1.50;;;-2.00;99.90;;;;;;5143934;27;20051;-60
2021/12/25 11:24:20;;;;;;;3.20;1.63;;;-2.00;99.90;;;;;;5143813;27;20516;-60
2021/12/25 11:26:51;;;;;;;2.30;1.50;;;-1.90;99.90;;;;;;5143602;27;20095;-60
2021/12/25 11:29:19;;;;;;;3.58;1.55;;;-1.80;99.90;;;;;;5142922;27;20046;-60
2021/12/25 11:31:48;;;;;;;5.78;1.67;;;-1.60;99.90;;;;;;5123277;27;20072;-60
2021/12/25 11:34:15;;;;;;;8.07;2.22;;;-1.60;99.90;;;;;;5125123;28;20053;-60
2021/12/25 11:36:47;;;;;;;7.30;1.80;;;-1.60;99.90;;;;;;5125211;28;20043;-60
2021/12/25 11:39:15;;;;;;;2.58;1.63;;;-1.70;99.90;;;;;;5143283;27;20475;-60
2021/12/25 11:41:42;;;;;;;2.70;1.70;;;-1.70;99.90;;;;;;5124495;27;20094;-60
2021/12/25 11:44:30;;;;;;;6.05;1.70;;;-1.80;99.90;;;;;;5124526;28;20047;-60
2021/12/25 11:46:56;;;;;;;;;;;-1.80;99.90;;;;;;5135167;27;20370;-60
2021/12/25 11:49:24;;;;;;;2.92;1.48;;;-1.90;99.90;;;;;;5124970;27;19964;-60
2021/12/25 11:51:51;;;;;;;2.95;1.40;;;-1.90;99.90;;;;;;5143274;28;20045;-60
2021/12/25 11:54:42;;;;;;;5.60;1.45;;;-1.90;99.90;;;;;;5143471;27;20047;-60
2021/12/25 11:57:33;;;;;;;4.95;1.50;;;-1.90;99.90;;;;;;5124576;28;20075;-60
2021/12/25 11:59:53;;;;;;;2.90;1.60;;;-1.90;99.90;;;;;;5124173;28;20206;-60
2021/12/25 12:02:42;;;;;;;7.33;1.80;;;-1.80;99.90;;;;;;5142868;27;20515;-60
2021/12/25 12:05:35;;;;;;;3.92;1.75;;;-1.80;99.90;;;;;;5143304;27;20320;-60
2021/12/25 12:08:11;;;;;;;4.47;1.73;;;-1.80;99.90;;;;;;5120638;28;20158;-60
2021/12/25 12:10:46;;;;;;;2.25;1.58;;;-1.80;99.90;;;;;;5143510;27;20118;-60
2021/12/25 12:13:31;;;;;;;5.78;1.92;;;-1.80;99.90;;;;;;5143286;28;20059;-60
2021/12/25 12:16:03;;;;;;;4.13;1.80;;;-1.80;99.90;;;;;;5124627;27;20039;-60
2021/12/25 12:18:33;;;;;;;5.32;1.95;;;-1.80;99.90;;;;;;5147059;27;20065;-60
2021/12/25 12:21:31;;;;;;;6.20;2.33;;;-1.80;99.90;;;;;;5147098;27;20084;-60
2021/12/25 12:26:52;;;;;;;4.78;1.70;;;-1.80;99.90;;;;;;5137077;27;20051;-60
2021/12/25 12:29:42;;;;;;;6.00;1.80;;;-1.80;99.90;;;;;;5147058;27;20128;-60
2021/12/25 12:32:19;;;;;;;2.20;1.45;;;-1.80;99.90;;;;;;5146964;27;20082;-60
2021/12/25 12:34:47;;;;;;;4.30;1.70;;;-1.70;99.90;;;;;;5128302;27;20062;-60
2021/12/25 12:37:16;;;;;;;4.80;1.90;;;-1.70;99.90;;;;;;5146705;27;20036;-60
2021/12/25 12:39:59;;;;;;;6.78;1.67;;;-1.70;99.90;;;;;;5127868;27;20073;-60
2021/12/25 12:42:44;;;;;;;5.72;1.85;;;-1.70;99.90;;;;;;5128191;27;20122;-60
2021/12/25 12:45:14;;;;;;;2.97;1.60;;;-1.70;99.90;;;;;;5134745;27;20054;-60
2021/12/25 12:47:41;;;;;;;2.15;1.52;;;-1.70;99.90;;;;;;5142961;27;20060;-60
2021/12/25 12:50:08;;;;;;;3.40;1.60;;;-1.70;99.90;;;;;;5147184;27;20039;-60
2021/12/25 12:52:40;;;;;;;3.83;1.98;;;-1.70;99.90;;;;;;5146477;27;20039;-60
2021/12/25 12:55:25;;;;;;;4.68;2.10;;;-1.60;99.90;;;;;;5127584;27;20058;-60
2021/12/25 12:58:11;;;;;;;4.53;1.63;;;-1.60;99.90;;;;;;5128066;27;20039;-60
2021/12/25 13:00:39;;;;;;;3.85;1.83;;;-1.70;99.90;;;;;;5110790;27;20096;-60
2021/12/25 13:03:06;;;;;;;7.63;1.92;;;-1.70;99.90;;;;;;5146203;27;20531;-60
2021/12/25 13:05:34;;;;;;;;;;;-1.60;99.90;;;;;;5134445;27;20043;-61
2021/12/25 13:08:09;;;;;;;1.65;1.20;;;-1.70;99.90;;;;;;5107614;28;20012;-60
2021/12/25 13:10:42;;;;;;;8.40;1.83;;;-1.60;99.90;;;;;;5122550;28;20051;-62
2021/12/25 13:13:18;;;;;;;3.78;2.03;;;-1.60;99.90;;;;;;5126181;28;20168;-60
2021/12/25 13:15:46;;;;;;;4.28;1.85;;;-1.60;99.90;;;;;;5124518;27;20071;-63
2021/12/25 13:18:12;;;;;;;5.55;2.00;;;-1.60;99.90;;;;;;5141848;27;20051;-63
2021/12/25 13:20:46;;;;;;;;;;;-1.60;99.90;;;;;;5140402;27;20035;-62
2021/12/25 13:23:21;;;;;;;3.10;1.70;;;-1.70;99.90;;;;;;5120659;27;20355;-63
2021/12/25 13:25:51;;;;;;;5.72;1.73;;;-1.60;99.90;;;;;;5137964;27;20054;-63
2021/12/25 13:28:17;;;;;;;2.78;1.65;;;-1.60;99.90;;;;;;5126533;27;20435;-64
2021/12/25 13:30:51;;;;;;;5.63;2.35;;;-1.60;99.90;;;;;;5146288;27;20076;-63
2021/12/25 13:33:20;;;;;;;5.05;2.08;;;-1.60;99.90;;;;;;5125663;28;20082;-63
2021/12/25 13:35:48;;;;;;;2.67;1.58;;;-1.60;99.90;;;;;;5139198;27;20435;-63
2021/12/25 13:38:15;;;;;;;5.47;1.92;;;-1.60;99.90;;;;;;5145447;27;20072;-64
2021/12/25 13:40:47;;;;;;;3.83;1.90;;;-1.60;99.90;;;;;;5127005;27;20050;-63
2021/12/25 13:43:13;;;;;;;2.63;1.70;;;-1.60;99.90;;;;;;5126728;27;20055;-70
2021/12/25 13:45:39;;;;;;;5.43;2.22;;;-1.60;99.90;;;;;;5127688;27;20045;-62
2021/12/25 13:48:06;;;;;;;5.57;1.95;;;-1.60;99.90;;;;;;5126488;27;20071;-63
2021/12/25 13:50:33;;;;;;;5.03;1.42;;;-1.70;99.90;;;;;;5146160;27;20047;-59
2021/12/25 13:52:59;;;;;;;4.25;1.50;;;-1.70;99.90;;;;;;5145118;27;20141;-60
2021/12/25 13:55:28;;;;;;;4.30;1.63;;;-1.70;99.90;;;;;;5146513;27;20394;-60
2021/12/25 13:58:00;;;;;;;3.70;1.80;;;-1.70;99.90;;;;;;5145741;27;20035;-61
2021/12/25 14:00:39;;;;;;;4.00;2.10;;;-1.70;99.90;;;;;;5145765;27;20051;-61
2021/12/25 14:03:11;;;;;;;3.60;2.05;;;-1.70;99.90;;;;;;5127288;27;20646;-60
2021/12/25 14:05:39;;;;;;;4.90;2.90;;;-1.70;99.90;;;;;;5146093;27;20139;-60
2021/12/25 14:08:06;;;;;;;6.30;2.10;;;-1.70;99.90;;;;;;5145301;27;20467;-60
2021/12/25 14:10:33;;;;;;;2.53;1.70;;;-1.70;99.90;;;;;;5126800;27;20061;-61
2021/12/25 14:13:03;;;;;;;5.63;1.90;;;-1.70;99.90;;;;;;5145374;27;20046;-61
2021/12/25 14:15:33;;;;;;;4.15;2.00;;;-1.70;99.90;;;;;;5146756;27;20058;-61
2021/12/25 14:18:03;;;;;;;2.80;1.65;;;-1.70;99.90;;;;;;5145821;27;20042;-61
2021/12/25 14:20:32;;;;;;;4.13;1.90;;;-1.70;99.90;;;;;;5127672;27;20463;-60
2021/12/25 14:23:09;;;;;;;5.85;1.83;;;-1.70;99.90;;;;;;5145145;27;20099;-60